sensor_id;sensor_type;location;lat;lon;timestamp;temperature;humidity
52034;DHT22;38045;52.988;6.536;2022-11-23T00:00:28;7.50;99.90
52034;DHT22;38045;52.988;6.536;2022-11-23T00:02:55;7.50;99.90
52034;DHT22;38045;52.988;6.536;2022-11-23T00:05:22;7.50;99.90
52034;DHT22;38045;52.988;6.536;2022-11-23T00:07:48;7.50;99.90
52034;DHT22;38045;52.988;6.536;2022-11-23T00:10:13;7.50;99.90
52034;DHT22;38045;52.988;6.536;2022-11-23T00:12:39;7.50;99.90
52034;DHT22;38045;52.988;6.536;2022-11-23T00:15:05;7.50;99.90
52034;DHT22;38045;52.988;6.536;2022-11-23T00:17:31;7.50;99.90
52034;DHT22;38045;52.988;6.536;2022-11-23T00:19:57;7.60;99.90
52034;DHT22;38045;52.988;6.536;2022-11-23T00:22:23;7.60;99.90
52034;DHT22;38045;52.988;6.536;2022-11-23T00:24:48;7.60;99.90
52034;DHT22;38045;52.988;6.536;2022-11-23T00:27:14;7.60;99.90
52034;DHT22;38045;52.988;6.536;2022-11-23T00:29:40;7.60;99.90
52034;DHT22;38045;52.988;6.536;2022-11-23T00:32:05;7.60;99.90
52034;DHT22;38045;52.988;6.536;2022-11-23T00:34:31;7.60;99.90
52034;DHT22;38045;52.988;6.536;2022-11-23T00:36:56;7.60;99.90
52034;DHT22;38045;52.988;6.536;2022-11-23T00:39:22;7.60;99.90
52034;DHT22;38045;52.988;6.536;2022-11-23T00:41:47;7.60;99.90
52034;DHT22;38045;52.988;6.536;2022-11-23T00:44:13;7.60;99.90
52034;DHT22;38045;52.988;6.536;2022-11-23T00:46:39;7.70;99.90
52034;DHT22;38045;52.988;6.536;2022-11-23T00:49:04;7.70;99.90
52034;DHT22;38045;52.988;6.536;2022-11-23T00:51:33;7.70;99.90
52034;DHT22;38045;52.988;6.536;2022-11-23T00:54:00;7.70;99.90
52034;DHT22;38045;52.988;6.536;2022-11-23T00:56:27;7.70;99.90
52034;DHT22;38045;52.988;6.536;2022-11-23T00:58:54;7.70;99.90
52034;DHT22;38045;52.988;6.536;2022-11-23T01:01:22;7.70;99.90
52034;DHT22;38045;52.988;6.536;2022-11-23T01:03:51;7.70;99.90
52034;DHT22;38045;52.988;6.536;2022-11-23T01:06:19;7.70;99.90
52034;DHT22;38045;52.988;6.536;2022-11-23T01:08:53;7.70;99.90
52034;DHT22;38045;52.988;6.536;2022-11-23T01:11:19;7.70;99.90
52034;DHT22;38045;52.988;6.536;2022-11-23T01:13:45;7.70;99.90
52034;DHT22;38045;52.988;6.536;2022-11-23T01:16:32;7.70;99.90
52034;DHT22;38045;52.988;6.536;2022-11-23T01:19:00;7.70;99.90
52034;DHT22;38045;52.988;6.536;2022-11-23T01:21:27;7.70;99.90
52034;DHT22;38045;52.988;6.536;2022-11-23T01:23:54;7.70;99.90
52034;DHT22;38045;52.988;6.536;2022-11-23T01:26:19;7.70;99.90
52034;DHT22;38045;52.988;6.536;2022-11-23T01:28:45;7.70;99.90
52034;DHT22;38045;52.988;6.536;2022-11-23T01:31:16;7.70;99.90
52034;DHT22;38045;52.988;6.536;2022-11-23T01:33:42;7.70;99.90
52034;DHT22;38045;52.988;6.536;2022-11-23T01:36:22;7.70;99.90
52034;DHT22;38045;52.988;6.536;2022-11-23T01:38:48;7.70;99.90
52034;DHT22;38045;52.988;6.536;2022-11-23T01:41:17;7.80;99.90
52034;DHT22;38045;52.988;6.536;2022-11-23T01:43:43;7.80;99.90
52034;DHT22;38045;52.988;6.536;2022-11-23T01:46:09;7.80;99.90
52034;DHT22;38045;52.988;6.536;2022-11-23T01:48:54;7.80;99.90
52034;DHT22;38045;52.988;6.536;2022-11-23T01:51:32;7.80;99.90
52034;DHT22;38045;52.988;6.536;2022-11-23T01:54:02;7.80;99.90
52034;DHT22;38045;52.988;6.536;2022-11-23T01:56:33;7.80;99.90
52034;DHT22;38045;52.988;6.536;2022-11-23T01:59:01;7.80;99.90
52034;DHT22;38045;52.988;6.536;2022-11-23T02:01:28;7.80;99.90
52034;DHT22;38045;52.988;6.536;2022-11-23T02:03:55;7.80;99.90
52034;DHT22;38045;52.988;6.536;2022-11-23T02:06:23;7.80;99.90
52034;DHT22;38045;52.988;6.536;2022-11-23T02:08:49;7.80;99.90
52034;DHT22;38045;52.988;6.536;2022-11-23T02:11:16;7.80;99.90
52034;DHT22;38045;52.988;6.536;2022-11-23T02:13:46;7.80;99.90
52034;DHT22;38045;52.988;6.536;2022-11-23T02:16:13;7.80;99.90
52034;DHT22;38045;52.988;6.536;2022-11-23T02:18:43;7.80;99.90
52034;DHT22;38045;52.988;6.536;2022-11-23T02:21:10;7.80;99.90
52034;DHT22;38045;52.988;6.536;2022-11-23T02:26:28;7.80;99.90
52034;DHT22;38045;52.988;6.536;2022-11-23T02:29:05;7.80;99.90
52034;DHT22;38045;52.988;6.536;2022-11-23T02:31:32;7.80;99.90
52034;DHT22;38045;52.988;6.536;2022-11-23T02:33:58;7.80;99.90
52034;DHT22;38045;52.988;6.536;2022-11-23T02:36:45;7.80;99.90
52034;DHT22;38045;52.988;6.536;2022-11-23T02:41:48;7.80;99.90
52034;DHT22;38045;52.988;6.536;2022-11-23T02:44:38;7.80;99.90
52034;DHT22;38045;52.988;6.536;2022-11-23T02:47:07;7.80;99.90
52034;DHT22;38045;52.988;6.536;2022-11-23T02:49:33;7.80;99.90
52034;DHT22;38045;52.988;6.536;2022-11-23T02:51:59;7.80;99.90
52034;DHT22;38045;52.988;6.536;2022-11-23T02:54:25;7.80;99.90
52034;DHT22;38045;52.988;6.536;2022-11-23T02:56:51;7.90;99.90
52034;DHT22;38045;52.988;6.536;2022-11-23T02:59:16;7.90;99.90
52034;DHT22;38045;52.988;6.536;2022-11-23T03:01:42;7.90;99.90
52034;DHT22;38045;52.988;6.536;2022-11-23T03:04:07;7.90;99.90
52034;DHT22;38045;52.988;6.536;2022-11-23T03:06:33;7.90;99.90
52034;DHT22;38045;52.988;6.536;2022-11-23T03:08:59;7.80;99.90
52034;DHT22;38045;52.988;6.536;2022-11-23T03:11:25;7.80;99.90
52034;DHT22;38045;52.988;6.536;2022-11-23T03:13:50;7.90;99.90
52034;DHT22;38045;52.988;6.536;2022-11-23T03:16:16;7.90;99.90
52034;DHT22;38045;52.988;6.536;2022-11-23T03:18:42;7.90;99.90
52034;DHT22;38045;52.988;6.536;2022-11-23T03:21:07;7.90;99.90
52034;DHT22;38045;52.988;6.536;2022-11-23T03:23:34;7.90;99.90
52034;DHT22;38045;52.988;6.536;2022-11-23T03:26:00;7.90;99.90
52034;DHT22;38045;52.988;6.536;2022-11-23T03:28:26;7.90;99.90
52034;DHT22;38045;52.988;6.536;2022-11-23T03:30:52;7.90;99.90
52034;DHT22;38045;52.988;6.536;2022-11-23T03:33:18;7.90;99.90
52034;DHT22;38045;52.988;6.536;2022-11-23T03:35:44;7.90;99.90
52034;DHT22;38045;52.988;6.536;2022-11-23T03:38:10;8.00;99.90
52034;DHT22;38045;52.988;6.536;2022-11-23T03:40:36;7.90;99.90
52034;DHT22;38045;52.988;6.536;2022-11-23T03:43:02;8.00;99.90
52034;DHT22;38045;52.988;6.536;2022-11-23T03:45:28;8.00;99.90
52034;DHT22;38045;52.988;6.536;2022-11-23T03:47:53;8.00;99.90
52034;DHT22;38045;52.988;6.536;2022-11-23T03:50:19;7.90;99.90
52034;DHT22;38045;52.988;6.536;2022-11-23T03:52:45;7.90;99.90
52034;DHT22;38045;52.988;6.536;2022-11-23T03:55:12;7.90;99.90
52034;DHT22;38045;52.988;6.536;2022-11-23T03:57:37;7.90;99.90
52034;DHT22;38045;52.988;6.536;2022-11-23T04:00:04;7.90;99.90
52034;DHT22;38045;52.988;6.536;2022-11-23T04:02:29;7.90;99.90
52034;DHT22;38045;52.988;6.536;2022-11-23T04:04:55;7.90;99.90
52034;DHT22;38045;52.988;6.536;2022-11-23T04:07:21;7.90;99.90
52034;DHT22;38045;52.988;6.536;2022-11-23T04:09:46;7.90;99.90
52034;DHT22;38045;52.988;6.536;2022-11-23T04:12:12;7.90;99.90
52034;DHT22;38045;52.988;6.536;2022-11-23T04:14:37;7.90;99.90
52034;DHT22;38045;52.988;6.536;2022-11-23T04:17:03;7.90;99.90
52034;DHT22;38045;52.988;6.536;2022-11-23T04:19:29;7.90;99.90
52034;DHT22;38045;52.988;6.536;2022-11-23T04:21:55;7.90;99.90
52034;DHT22;38045;52.988;6.536;2022-11-23T04:24:20;7.90;99.90
52034;DHT22;38045;52.988;6.536;2022-11-23T04:26:46;7.90;99.90
52034;DHT22;38045;52.988;6.536;2022-11-23T04:29:11;7.90;99.90
52034;DHT22;38045;52.988;6.536;2022-11-23T04:31:37;7.90;99.90
52034;DHT22;38045;52.988;6.536;2022-11-23T04:34:03;8.00;99.90
52034;DHT22;38045;52.988;6.536;2022-11-23T04:36:28;8.00;99.90
52034;DHT22;38045;52.988;6.536;2022-11-23T04:38:54;8.00;99.90
52034;DHT22;38045;52.988;6.536;2022-11-23T04:41:20;7.90;99.90
52034;DHT22;38045;52.988;6.536;2022-11-23T04:43:47;7.90;99.90
52034;DHT22;38045;52.988;6.536;2022-11-23T04:46:13;7.90;99.90
52034;DHT22;38045;52.988;6.536;2022-11-23T04:48:39;7.90;99.90
52034;DHT22;38045;52.988;6.536;2022-11-23T04:51:05;7.90;99.90
52034;DHT22;38045;52.988;6.536;2022-11-23T04:53:30;7.90;99.90
52034;DHT22;38045;52.988;6.536;2022-11-23T04:55:56;8.00;99.90
52034;DHT22;38045;52.988;6.536;2022-11-23T04:58:21;8.00;99.90
52034;DHT22;38045;52.988;6.536;2022-11-23T05:00:47;8.00;99.90
52034;DHT22;38045;52.988;6.536;2022-11-23T05:03:13;8.00;99.90
52034;DHT22;38045;52.988;6.536;2022-11-23T05:05:39;8.00;99.90
52034;DHT22;38045;52.988;6.536;2022-11-23T05:08:05;8.00;99.90
52034;DHT22;38045;52.988;6.536;2022-11-23T05:10:31;8.00;99.90
52034;DHT22;38045;52.988;6.536;2022-11-23T05:12:56;8.00;99.90
52034;DHT22;38045;52.988;6.536;2022-11-23T05:15:22;8.00;99.90
52034;DHT22;38045;52.988;6.536;2022-11-23T05:17:47;8.00;99.90
52034;DHT22;38045;52.988;6.536;2022-11-23T05:20:13;8.00;99.90
52034;DHT22;38045;52.988;6.536;2022-11-23T05:22:39;8.00;99.90
52034;DHT22;38045;52.988;6.536;2022-11-23T05:25:05;8.00;99.90
52034;DHT22;38045;52.988;6.536;2022-11-23T05:27:31;8.00;99.90
52034;DHT22;38045;52.988;6.536;2022-11-23T05:29:57;8.00;99.90
52034;DHT22;38045;52.988;6.536;2022-11-23T05:32:22;8.00;99.90
52034;DHT22;38045;52.988;6.536;2022-11-23T05:34:48;8.10;99.90
52034;DHT22;38045;52.988;6.536;2022-11-23T05:37:14;8.00;99.90
52034;DHT22;38045;52.988;6.536;2022-11-23T05:39:40;8.10;99.90
52034;DHT22;38045;52.988;6.536;2022-11-23T05:42:05;8.10;99.90
52034;DHT22;38045;52.988;6.536;2022-11-23T05:44:31;8.10;99.90
52034;DHT22;38045;52.988;6.536;2022-11-23T05:46:57;8.10;99.90
52034;DHT22;38045;52.988;6.536;2022-11-23T05:49:23;8.10;99.90
52034;DHT22;38045;52.988;6.536;2022-11-23T05:51:48;8.10;99.90
52034;DHT22;38045;52.988;6.536;2022-11-23T05:54:14;8.00;99.90
52034;DHT22;38045;52.988;6.536;2022-11-23T05:56:42;8.00;99.90
52034;DHT22;38045;52.988;6.536;2022-11-23T05:59:09;8.00;99.90
52034;DHT22;38045;52.988;6.536;2022-11-23T06:01:35;8.00;99.90
52034;DHT22;38045;52.988;6.536;2022-11-23T06:04:00;8.00;99.90
52034;DHT22;38045;52.988;6.536;2022-11-23T06:06:26;8.00;99.90
52034;DHT22;38045;52.988;6.536;2022-11-23T06:08:52;8.00;99.90
52034;DHT22;38045;52.988;6.536;2022-11-23T06:11:17;7.90;99.90
52034;DHT22;38045;52.988;6.536;2022-11-23T06:13:46;7.90;99.90
52034;DHT22;38045;52.988;6.536;2022-11-23T06:16:12;7.90;99.90
52034;DHT22;38045;52.988;6.536;2022-11-23T06:18:37;7.90;99.90
52034;DHT22;38045;52.988;6.536;2022-11-23T06:21:03;7.90;99.90
52034;DHT22;38045;52.988;6.536;2022-11-23T06:23:29;7.90;99.90
52034;DHT22;38045;52.988;6.536;2022-11-23T06:25:57;7.90;99.90
52034;DHT22;38045;52.988;6.536;2022-11-23T06:28:23;7.90;99.90
52034;DHT22;38045;52.988;6.536;2022-11-23T06:30:49;7.80;99.90
52034;DHT22;38045;52.988;6.536;2022-11-23T06:33:14;7.80;99.90
52034;DHT22;38045;52.988;6.536;2022-11-23T06:35:40;7.80;99.90
52034;DHT22;38045;52.988;6.536;2022-11-23T06:38:05;7.80;99.90
52034;DHT22;38045;52.988;6.536;2022-11-23T06:40:31;7.80;99.90
52034;DHT22;38045;52.988;6.536;2022-11-23T06:42:57;7.70;99.90
52034;DHT22;38045;52.988;6.536;2022-11-23T06:45:24;7.70;99.90
52034;DHT22;38045;52.988;6.536;2022-11-23T06:47:49;7.70;99.90
52034;DHT22;38045;52.988;6.536;2022-11-23T06:50:18;7.70;99.90
52034;DHT22;38045;52.988;6.536;2022-11-23T06:52:43;7.70;99.90
52034;DHT22;38045;52.988;6.536;2022-11-23T06:55:09;7.60;99.90
52034;DHT22;38045;52.988;6.536;2022-11-23T06:57:35;7.60;99.90
52034;DHT22;38045;52.988;6.536;2022-11-23T07:00:00;7.60;99.90
52034;DHT22;38045;52.988;6.536;2022-11-23T07:02:26;7.60;99.90
52034;DHT22;38045;52.988;6.536;2022-11-23T07:04:51;7.60;99.90
52034;DHT22;38045;52.988;6.536;2022-11-23T07:07:17;7.60;99.90
52034;DHT22;38045;52.988;6.536;2022-11-23T07:09:43;7.60;99.90
52034;DHT22;38045;52.988;6.536;2022-11-23T07:12:08;7.60;99.90
52034;DHT22;38045;52.988;6.536;2022-11-23T07:14:34;7.60;99.90
52034;DHT22;38045;52.988;6.536;2022-11-23T07:16:59;7.70;99.90
52034;DHT22;38045;52.988;6.536;2022-11-23T07:19:26;7.70;99.90
52034;DHT22;38045;52.988;6.536;2022-11-23T07:21:51;7.70;99.90
52034;DHT22;38045;52.988;6.536;2022-11-23T07:24:17;7.70;99.90
52034;DHT22;38045;52.988;6.536;2022-11-23T07:26:43;7.70;99.90
52034;DHT22;38045;52.988;6.536;2022-11-23T07:29:09;7.70;99.90
52034;DHT22;38045;52.988;6.536;2022-11-23T07:31:34;7.80;99.90
52034;DHT22;38045;52.988;6.536;2022-11-23T07:34:00;7.70;99.90
52034;DHT22;38045;52.988;6.536;2022-11-23T07:36:25;7.70;99.90
52034;DHT22;38045;52.988;6.536;2022-11-23T07:38:51;7.70;99.90
52034;DHT22;38045;52.988;6.536;2022-11-23T07:41:16;7.70;99.90
52034;DHT22;38045;52.988;6.536;2022-11-23T07:43:42;7.70;99.90
52034;DHT22;38045;52.988;6.536;2022-11-23T07:46:08;7.70;99.90
52034;DHT22;38045;52.988;6.536;2022-11-23T07:48:33;7.70;99.90
52034;DHT22;38045;52.988;6.536;2022-11-23T07:50:59;7.70;99.90
52034;DHT22;38045;52.988;6.536;2022-11-23T07:53:24;7.70;99.90
52034;DHT22;38045;52.988;6.536;2022-11-23T07:55:54;7.70;99.90
52034;DHT22;38045;52.988;6.536;2022-11-23T07:58:20;7.70;99.90
52034;DHT22;38045;52.988;6.536;2022-11-23T08:00:46;7.70;99.90
52034;DHT22;38045;52.988;6.536;2022-11-23T08:03:12;7.70;99.90
52034;DHT22;38045;52.988;6.536;2022-11-23T08:05:39;7.70;99.90
52034;DHT22;38045;52.988;6.536;2022-11-23T08:08:04;7.70;99.90
52034;DHT22;38045;52.988;6.536;2022-11-23T08:10:31;7.70;99.90
52034;DHT22;38045;52.988;6.536;2022-11-23T08:12:58;7.70;99.90
52034;DHT22;38045;52.988;6.536;2022-11-23T08:15:24;7.80;99.90
52034;DHT22;38045;52.988;6.536;2022-11-23T08:17:56;7.80;99.90
52034;DHT22;38045;52.988;6.536;2022-11-23T08:20:22;7.80;99.90
52034;DHT22;38045;52.988;6.536;2022-11-23T08:22:47;7.80;99.90
52034;DHT22;38045;52.988;6.536;2022-11-23T08:25:13;7.90;99.90
52034;DHT22;38045;52.988;6.536;2022-11-23T08:27:39;7.90;99.90
52034;DHT22;38045;52.988;6.536;2022-11-23T08:30:05;7.90;99.90
52034;DHT22;38045;52.988;6.536;2022-11-23T08:32:30;8.00;99.90
52034;DHT22;38045;52.988;6.536;2022-11-23T08:34:56;8.00;99.90
52034;DHT22;38045;52.988;6.536;2022-11-23T08:37:22;8.00;99.90
52034;DHT22;38045;52.988;6.536;2022-11-23T08:39:47;8.00;99.90
52034;DHT22;38045;52.988;6.536;2022-11-23T08:42:13;8.00;99.90
52034;DHT22;38045;52.988;6.536;2022-11-23T08:44:38;8.00;99.90
52034;DHT22;38045;52.988;6.536;2022-11-23T08:47:04;8.00;99.90
52034;DHT22;38045;52.988;6.536;2022-11-23T08:49:29;8.00;99.90
52034;DHT22;38045;52.988;6.536;2022-11-23T08:51:55;8.00;99.90
52034;DHT22;38045;52.988;6.536;2022-11-23T08:54:20;8.00;99.90
52034;DHT22;38045;52.988;6.536;2022-11-23T08:56:49;8.10;99.90
52034;DHT22;38045;52.988;6.536;2022-11-23T08:59:15;8.10;99.90
52034;DHT22;38045;52.988;6.536;2022-11-23T09:01:42;8.20;99.90
52034;DHT22;38045;52.988;6.536;2022-11-23T09:04:07;8.20;99.90
52034;DHT22;38045;52.988;6.536;2022-11-23T09:06:34;8.30;99.90
52034;DHT22;38045;52.988;6.536;2022-11-23T09:08:59;8.30;99.90
52034;DHT22;38045;52.988;6.536;2022-11-23T09:11:25;8.40;99.90
52034;DHT22;38045;52.988;6.536;2022-11-23T09:13:51;8.40;99.90
52034;DHT22;38045;52.988;6.536;2022-11-23T09:16:17;8.40;99.90
52034;DHT22;38045;52.988;6.536;2022-11-23T09:18:43;8.40;99.90
52034;DHT22;38045;52.988;6.536;2022-11-23T09:21:09;8.40;99.90
52034;DHT22;38045;52.988;6.536;2022-11-23T09:23:35;8.50;99.90
52034;DHT22;38045;52.988;6.536;2022-11-23T09:26:01;8.50;99.90
52034;DHT22;38045;52.988;6.536;2022-11-23T09:28:28;8.50;99.90
52034;DHT22;38045;52.988;6.536;2022-11-23T09:30:54;8.50;99.90
52034;DHT22;38045;52.988;6.536;2022-11-23T09:33:21;8.50;99.90
52034;DHT22;38045;52.988;6.536;2022-11-23T09:35:54;8.50;99.90
52034;DHT22;38045;52.988;6.536;2022-11-23T09:38:20;8.50;99.90
52034;DHT22;38045;52.988;6.536;2022-11-23T09:40:45;8.50;99.90
52034;DHT22;38045;52.988;6.536;2022-11-23T09:43:37;8.60;99.90
52034;DHT22;38045;52.988;6.536;2022-11-23T09:46:38;8.60;99.90
52034;DHT22;38045;52.988;6.536;2022-11-23T09:49:14;8.60;99.90
52034;DHT22;38045;52.988;6.536;2022-11-23T09:51:41;8.70;99.90
52034;DHT22;38045;52.988;6.536;2022-11-23T09:56:47;8.70;99.90
52034;DHT22;38045;52.988;6.536;2022-11-23T09:59:38;8.70;99.90
52034;DHT22;38045;52.988;6.536;2022-11-23T10:02:04;8.80;99.90
52034;DHT22;38045;52.988;6.536;2022-11-23T10:04:33;8.70;99.90
52034;DHT22;38045;52.988;6.536;2022-11-23T10:13:14;8.80;99.90
52034;DHT22;38045;52.988;6.536;2022-11-23T10:23:51;8.70;99.90
52034;DHT22;38045;52.988;6.536;2022-11-23T10:26:21;8.80;99.90
52034;DHT22;38045;52.988;6.536;2022-11-23T10:28:49;8.80;99.90
52034;DHT22;38045;52.988;6.536;2022-11-23T10:31:18;8.80;99.90
52034;DHT22;38045;52.988;6.536;2022-11-23T10:33:48;8.70;99.90
52034;DHT22;38045;52.988;6.536;2022-11-23T10:36:17;8.80;99.90
52034;DHT22;38045;52.988;6.536;2022-11-23T10:38:43;8.80;99.90
52034;DHT22;38045;52.988;6.536;2022-11-23T10:41:11;8.80;99.90
52034;DHT22;38045;52.988;6.536;2022-11-23T10:46:27;8.80;99.90
52034;DHT22;38045;52.988;6.536;2022-11-23T10:49:07;8.90;99.90
52034;DHT22;38045;52.988;6.536;2022-11-23T10:51:33;8.80;99.90
52034;DHT22;38045;52.988;6.536;2022-11-23T10:54:01;8.80;99.90
52034;DHT22;38045;52.988;6.536;2022-11-23T10:56:28;8.70;99.90
52034;DHT22;38045;52.988;6.536;2022-11-23T10:58:54;8.70;99.90
52034;DHT22;38045;52.988;6.536;2022-11-23T11:01:22;8.70;99.90
52034;DHT22;38045;52.988;6.536;2022-11-23T11:03:49;8.70;99.90
52034;DHT22;38045;52.988;6.536;2022-11-23T11:06:32;8.80;99.90
52034;DHT22;38045;52.988;6.536;2022-11-23T11:09:17;8.80;99.90
52034;DHT22;38045;52.988;6.536;2022-11-23T11:11:47;8.90;99.90
52034;DHT22;38045;52.988;6.536;2022-11-23T11:14:18;8.90;99.90
52034;DHT22;38045;52.988;6.536;2022-11-23T11:16:57;9.00;99.90
52034;DHT22;38045;52.988;6.536;2022-11-23T11:19:34;9.00;99.90
52034;DHT22;38045;52.988;6.536;2022-11-23T11:22:03;9.10;99.90
52034;DHT22;38045;52.988;6.536;2022-11-23T11:24:45;9.20;99.90
52034;DHT22;38045;52.988;6.536;2022-11-23T11:27:22;9.40;99.90
52034;DHT22;38045;52.988;6.536;2022-11-23T11:29:50;9.70;99.90
52034;DHT22;38045;52.988;6.536;2022-11-23T11:40:32;10.10;99.90
52034;DHT22;38045;52.988;6.536;2022-11-23T11:43:13;10.30;99.90
52034;DHT22;38045;52.988;6.536;2022-11-23T11:45:44;10.40;99.90
52034;DHT22;38045;52.988;6.536;2022-11-23T11:48:18;10.40;99.90
52034;DHT22;38045;52.988;6.536;2022-11-23T11:50:56;10.50;99.90
52034;DHT22;38045;52.988;6.536;2022-11-23T11:53:28;10.50;99.90
52034;DHT22;38045;52.988;6.536;2022-11-23T11:55:59;10.50;99.90
52034;DHT22;38045;52.988;6.536;2022-11-23T11:58:27;10.60;99.90
52034;DHT22;38045;52.988;6.536;2022-11-23T12:01:31;10.60;99.90
52034;DHT22;38045;52.988;6.536;2022-11-23T12:04:06;10.60;99.90
52034;DHT22;38045;52.988;6.536;2022-11-23T12:06:38;10.60;99.90
52034;DHT22;38045;52.988;6.536;2022-11-23T12:09:23;10.70;99.90
52034;DHT22;38045;52.988;6.536;2022-11-23T12:11:50;10.70;99.90
52034;DHT22;38045;52.988;6.536;2022-11-23T12:14:16;10.80;99.90
52034;DHT22;38045;52.988;6.536;2022-11-23T12:23:06;10.70;99.90
52034;DHT22;38045;52.988;6.536;2022-11-23T12:25:37;10.70;99.90
52034;DHT22;38045;52.988;6.536;2022-11-23T12:38:55;11.10;99.90
52034;DHT22;38045;52.988;6.536;2022-11-23T12:42:03;11.20;99.90
52034;DHT22;38045;52.988;6.536;2022-11-23T12:44:46;11.30;99.90
52034;DHT22;38045;52.988;6.536;2022-11-23T12:49:44;11.00;99.90
52034;DHT22;38045;52.988;6.536;2022-11-23T12:52:30;10.90;99.90
52034;DHT22;38045;52.988;6.536;2022-11-23T12:57:39;11.10;99.90
52034;DHT22;38045;52.988;6.536;2022-11-23T13:00:22;11.40;99.90
52034;DHT22;38045;52.988;6.536;2022-11-23T13:16:19;11.30;99.90
52034;DHT22;38045;52.988;6.536;2022-11-23T13:21:37;11.20;99.90
52034;DHT22;38045;52.988;6.536;2022-11-23T13:24:26;11.10;99.90
52034;DHT22;38045;52.988;6.536;2022-11-23T13:40:42;11.30;99.90
52034;DHT22;38045;52.988;6.536;2022-11-23T13:46:25;11.30;99.90
52034;DHT22;38045;52.988;6.536;2022-11-23T13:48:55;11.40;99.90
52034;DHT22;38045;52.988;6.536;2022-11-23T13:51:33;11.20;99.90
52034;DHT22;38045;52.988;6.536;2022-11-23T13:54:02;11.00;99.90
52034;DHT22;38045;52.988;6.536;2022-11-23T13:56:41;10.80;99.90
52034;DHT22;38045;52.988;6.536;2022-11-23T14:04:33;10.50;99.90
52034;DHT22;38045;52.988;6.536;2022-11-23T14:07:14;10.40;99.90
52034;DHT22;38045;52.988;6.536;2022-11-23T14:10:05;10.30;99.90
52034;DHT22;38045;52.988;6.536;2022-11-23T14:12:59;10.30;99.90
52034;DHT22;38045;52.988;6.536;2022-11-23T14:15:29;10.20;99.90
52034;DHT22;38045;52.988;6.536;2022-11-23T14:18:30;10.10;99.90
52034;DHT22;38045;52.988;6.536;2022-11-23T14:21:20;10.00;99.90
52034;DHT22;38045;52.988;6.536;2022-11-23T14:26:47;9.90;99.90
52034;DHT22;38045;52.988;6.536;2022-11-23T14:32:24;9.80;99.90
52034;DHT22;38045;52.988;6.536;2022-11-23T14:37:53;9.70;99.90
52034;DHT22;38045;52.988;6.536;2022-11-23T14:43:15;9.60;99.90
52034;DHT22;38045;52.988;6.536;2022-11-23T14:45:43;9.60;99.90
52034;DHT22;38045;52.988;6.536;2022-11-23T14:48:29;9.60;99.90
52034;DHT22;38045;52.988;6.536;2022-11-23T14:51:10;9.50;99.90
52034;DHT22;38045;52.988;6.536;2022-11-23T14:53:44;9.40;99.90
52034;DHT22;38045;52.988;6.536;2022-11-23T14:56:33;9.40;99.90
52034;DHT22;38045;52.988;6.536;2022-11-23T14:59:26;9.40;99.90
52034;DHT22;38045;52.988;6.536;2022-11-23T15:02:01;9.40;99.90
52034;DHT22;38045;52.988;6.536;2022-11-23T15:04:36;9.30;99.90
52034;DHT22;38045;52.988;6.536;2022-11-23T15:07:17;9.30;99.90
52034;DHT22;38045;52.988;6.536;2022-11-23T15:09:46;9.20;99.90
52034;DHT22;38045;52.988;6.536;2022-11-23T15:12:37;9.10;99.90
52034;DHT22;38045;52.988;6.536;2022-11-23T15:15:18;9.10;99.90
52034;DHT22;38045;52.988;6.536;2022-11-23T15:18:01;9.00;99.90
52034;DHT22;38045;52.988;6.536;2022-11-23T15:20:30;9.00;99.90
52034;DHT22;38045;52.988;6.536;2022-11-23T15:23:02;9.00;99.90
52034;DHT22;38045;52.988;6.536;2022-11-23T15:25:29;9.00;99.90
52034;DHT22;38045;52.988;6.536;2022-11-23T15:27:55;9.00;99.90
52034;DHT22;38045;52.988;6.536;2022-11-23T15:30:26;9.00;99.90
52034;DHT22;38045;52.988;6.536;2022-11-23T15:33:01;9.00;99.90
52034;DHT22;38045;52.988;6.536;2022-11-23T15:35:35;9.10;99.90
52034;DHT22;38045;52.988;6.536;2022-11-23T15:38:02;9.10;99.90
52034;DHT22;38045;52.988;6.536;2022-11-23T15:40:35;9.10;99.90
52034;DHT22;38045;52.988;6.536;2022-11-23T15:43:02;9.10;99.90
52034;DHT22;38045;52.988;6.536;2022-11-23T15:48:31;9.10;99.90
52034;DHT22;38045;52.988;6.536;2022-11-23T15:50:59;9.10;99.90
52034;DHT22;38045;52.988;6.536;2022-11-23T15:53:32;9.10;99.90
52034;DHT22;38045;52.988;6.536;2022-11-23T15:56:03;9.10;99.90
52034;DHT22;38045;52.988;6.536;2022-11-23T15:58:29;9.00;99.90
52034;DHT22;38045;52.988;6.536;2022-11-23T16:01:05;9.00;99.90
52034;DHT22;38045;52.988;6.536;2022-11-23T16:03:37;8.90;99.90
52034;DHT22;38045;52.988;6.536;2022-11-23T16:06:18;8.80;99.90
52034;DHT22;38045;52.988;6.536;2022-11-23T16:08:44;8.70;99.90
52034;DHT22;38045;52.988;6.536;2022-11-23T16:11:21;8.70;99.90
52034;DHT22;38045;52.988;6.536;2022-11-23T16:13:47;8.60;99.90
52034;DHT22;38045;52.988;6.536;2022-11-23T16:16:15;8.50;99.90
52034;DHT22;38045;52.988;6.536;2022-11-23T16:18:44;8.50;99.90
52034;DHT22;38045;52.988;6.536;2022-11-23T16:21:14;8.50;99.90
52034;DHT22;38045;52.988;6.536;2022-11-23T16:23:53;8.50;99.90
52034;DHT22;38045;52.988;6.536;2022-11-23T16:26:27;8.50;99.90
52034;DHT22;38045;52.988;6.536;2022-11-23T16:28:55;8.50;99.90
52034;DHT22;38045;52.988;6.536;2022-11-23T16:31:38;8.40;99.90
52034;DHT22;38045;52.988;6.536;2022-11-23T16:34:17;8.40;99.90
52034;DHT22;38045;52.988;6.536;2022-11-23T16:36:44;8.50;99.90
52034;DHT22;38045;52.988;6.536;2022-11-23T16:39:10;8.50;99.90
52034;DHT22;38045;52.988;6.536;2022-11-23T16:41:36;8.40;99.90
52034;DHT22;38045;52.988;6.536;2022-11-23T16:44:01;8.50;99.90
52034;DHT22;38045;52.988;6.536;2022-11-23T16:46:28;8.40;99.90
52034;DHT22;38045;52.988;6.536;2022-11-23T16:48:53;8.50;99.90
52034;DHT22;38045;52.988;6.536;2022-11-23T16:51:22;8.50;99.90
52034;DHT22;38045;52.988;6.536;2022-11-23T16:53:47;8.50;99.90
52034;DHT22;38045;52.988;6.536;2022-11-23T16:56:21;8.50;99.90
52034;DHT22;38045;52.988;6.536;2022-11-23T16:58:47;8.50;99.90
52034;DHT22;38045;52.988;6.536;2022-11-23T17:01:19;8.50;99.90
52034;DHT22;38045;52.988;6.536;2022-11-23T17:03:44;8.40;99.90
52034;DHT22;38045;52.988;6.536;2022-11-23T17:06:14;8.40;99.90
52034;DHT22;38045;52.988;6.536;2022-11-23T17:08:42;8.40;99.90
52034;DHT22;38045;52.988;6.536;2022-11-23T17:11:12;8.30;99.90
52034;DHT22;38045;52.988;6.536;2022-11-23T17:13:38;8.20;99.90
52034;DHT22;38045;52.988;6.536;2022-11-23T17:16:04;8.30;99.90
52034;DHT22;38045;52.988;6.536;2022-11-23T17:18:29;8.20;99.90
52034;DHT22;38045;52.988;6.536;2022-11-23T17:20:55;8.20;99.90
52034;DHT22;38045;52.988;6.536;2022-11-23T17:23:20;8.10;99.90
52034;DHT22;38045;52.988;6.536;2022-11-23T17:25:47;8.10;99.90
52034;DHT22;38045;52.988;6.536;2022-11-23T17:28:17;8.10;99.90
52034;DHT22;38045;52.988;6.536;2022-11-23T17:30:46;8.00;99.90
52034;DHT22;38045;52.988;6.536;2022-11-23T17:33:12;8.00;99.90
52034;DHT22;38045;52.988;6.536;2022-11-23T17:35:38;7.90;99.90
52034;DHT22;38045;52.988;6.536;2022-11-23T17:38:05;7.90;99.90
52034;DHT22;38045;52.988;6.536;2022-11-23T17:40:30;7.90;99.90
52034;DHT22;38045;52.988;6.536;2022-11-23T17:42:56;7.80;99.90
52034;DHT22;38045;52.988;6.536;2022-11-23T17:45:21;7.80;99.90